Time;durP1;ratioP1;P1;durP2;ratioP2;P2;SDS_P1;SDS_P2;PMS_P1;PMS_P2;Temp;Humidity;BMP_temperature;BMP_pressure;BME280_temperature;BME280_humidity;BME280_pressure;Samples;Min_cycle;Max_cycle;Signal;HPM_P1;HPM_P2
2023/01/30 00:01:32;;;;;;;;;;;;;;;6.62;100.00;101817.34;5076449;28;19924;-79
2023/01/30 00:03:58;;;;;;;;;;;;;;;6.63;100.00;101837.28;5077703;28;19920;-79
2023/01/30 00:06:23;;;;;;;;;;;;;;;6.64;100.00;101828.59;5093289;28;19984;-79
2023/01/30 00:08:48;;;;;;;;;;;;;;;6.65;100.00;101819.06;5080772;28;19924;-79
2023/01/30 00:11:14;;;;;;;;;;;;;;;6.66;100.00;101815.59;5076339;28;19999;-79
2023/01/30 00:13:40;;;;;;;;;;;;;;;6.67;100.00;101806.88;5092248;28;20154;-79
2023/01/30 00:16:06;;;;;;;;;;;;;;;6.69;100.00;101806.00;5097868;28;19940;-79
2023/01/30 00:18:31;;;;;;;;;;;;;;;6.69;100.00;101810.34;5084679;28;19917;-78
2023/01/30 00:20:57;;;;;;;;;;;;;;;6.69;100.00;101806.00;5059518;28;19936;-79
2023/01/30 00:23:23;;;;;;;;;;;;;;;6.69;100.00;101813.81;5081202;28;20242;-79
2023/01/30 00:25:49;;;;;;;;;;;;;;;6.69;100.00;101811.22;5077807;28;19952;-80
2023/01/30 00:28:14;;;;;;;;;;;;;;;6.70;100.00;101804.25;5079178;28;20143;-79
2023/01/30 00:30:39;;;;;;;;;;;;;;;6.71;100.00;101792.94;5076949;28;19966;-79
2023/01/30 00:33:04;;;;;;;;;;;;;;;6.71;100.00;101774.72;5081003;28;19969;-79
2023/01/30 00:35:30;;;;;;;;;;;;;;;6.70;100.00;101766.06;5089018;28;19958;-79
2023/01/30 00:37:56;;;;;;;;;;;;;;;6.71;100.00;101775.63;5080930;28;20123;-79
2023/01/30 00:40:22;;;;;;;;;;;;;;;6.71;100.00;101780.81;5076685;28;20220;-79
2023/01/30 00:48:15;;;;;;;;;;;;;;;6.71;100.00;101767.81;5091641;28;20231;-79
2023/01/30 00:50:43;;;;;;;;;;;;;;;6.71;100.00;101766.91;5076608;28;19929;-79
2023/01/30 00:53:09;;;;;;;;;;;;;;;6.72;100.00;101768.66;5080967;28;19959;-79
2023/01/30 00:55:34;;;;;;;;;;;;;;;6.72;100.00;101764.31;5097049;28;20037;-79
2023/01/30 00:58:00;;;;;;;;;;;;;;;6.71;100.00;101752.19;5092421;28;19932;-79
2023/01/30 01:00:25;;;;;;;;;;;;;;;6.71;100.00;101754.78;5077641;28;19925;-79
2023/01/30 01:02:50;;;;;;;;;;;;;;;6.70;100.00;101758.25;5094219;28;20018;-79
2023/01/30 01:05:16;;;;;;;;;;;;;;;6.71;100.00;101740.88;5084880;28;19924;-79
2023/01/30 01:07:41;;;;;;;;;;;;;;;6.71;100.00;101717.47;5097807;28;19924;-79
2023/01/30 01:10:06;;;;;;;;;;;;;;;6.70;100.00;101703.59;5085717;28;20037;-79
2023/01/30 01:12:32;;;;;;;;;;;;;;;6.70;100.00;101700.97;5090036;28;20231;-79
2023/01/30 01:14:57;;;;;;;;;;;;;;;6.70;100.00;101697.53;5078774;28;19962;-79
2023/01/30 01:17:22;;;;;;;;;;;;;;;6.70;100.00;101687.97;5091083;28;20112;-79
2023/01/30 01:19:48;;;;;;;;;;;;;;;6.69;100.00;101675.84;5084490;28;19946;-79
2023/01/30 01:22:13;;;;;;;;;;;;;;;6.68;100.00;101684.53;5087243;28;19931;-79
2023/01/30 01:24:38;;;;;;;;;;;;;;;6.67;100.00;101682.78;5092876;28;19991;-79
2023/01/30 01:27:03;;;;;;;;;;;;;;;6.68;100.00;101701.91;5077712;28;19916;-79
2023/01/30 01:29:29;;;;;;;;;;;;;;;6.68;100.00;101700.16;5085033;28;19928;-79
2023/01/30 01:31:56;;;;;;;;;;;;;;;6.69;100.00;101696.69;5095543;28;19959;-79
2023/01/30 01:34:21;;;;;;;;;;;;;;;6.69;100.00;101706.22;5088348;28;19923;-79
2023/01/30 01:36:48;;;;;;;;;;;;;;;6.68;100.00;101694.94;5087677;28;19919;-79
2023/01/30 01:39:13;;;;;;;;;;;;;;;6.67;100.00;101689.75;5090568;28;19920;-80
2023/01/30 01:41:38;;;;;;;;;;;;;;;6.66;100.00;101712.31;5075570;28;19928;-79
2023/01/30 01:44:05;;;;;;;;;;;;;;;6.66;100.00;101703.66;5081111;28;19920;-79
2023/01/30 01:46:33;;;;;;;;;;;;;;;6.65;100.00;101713.19;5077498;28;20234;-79
2023/01/30 01:49:02;;;;;;;;;;;;;;;6.66;100.00;101703.66;5081630;28;19924;-79
2023/01/30 01:51:32;;;;;;;;;;;;;;;6.64;100.00;101714.06;5085461;28;20211;-79
2023/01/30 01:54:02;;;;;;;;;;;;;;;6.63;100.00;101709.75;5098369;28;20257;-79
2023/01/30 01:56:28;;;;;;;;;;;;;;;6.64;100.00;101701.06;5080142;28;20006;-79
2023/01/30 01:58:57;;;;;;;;;;;;;;;6.64;100.00;101705.38;5081159;28;20134;-79
2023/01/30 02:01:22;;;;;;;;;;;;;;;6.64;100.00;101697.56;5095073;28;19951;-79
2023/01/30 02:03:50;;;;;;;;;;;;;;;6.63;100.00;101707.13;5097338;28;20227;-79
2023/01/30 02:06:17;;;;;;;;;;;;;;;6.63;100.00;101701.06;5082539;28;20246;-79
2023/01/30 02:08:49;;;;;;;;;;;;;;;6.61;100.00;101706.28;5092583;28;20215;-79
2023/01/30 02:11:24;;;;;;;;;;;;;;;6.61;100.00;101706.28;5099587;28;19920;-79
2023/01/30 02:13:49;;;;;;;;;;;;;;;6.60;100.00;101690.69;5100543;28;19995;-79
2023/01/30 02:16:15;;;;;;;;;;;;;;;6.59;100.00;101686.38;5092281;28;20098;-79
2023/01/30 02:18:42;;;;;;;;;;;;;;;6.59;100.00;101694.19;5091393;28;19981;-79
2023/01/30 02:21:22;;;;;;;;;;;;;;;6.59;100.00;101688.97;5083488;28;19920;-79
2023/01/30 02:23:47;;;;;;;;;;;;;;;6.58;100.00;101687.25;5092156;28;20077;-79
2023/01/30 02:26:31;;;;;;;;;;;;;;;6.59;100.00;101700.25;5083090;28;19928;-79
2023/01/30 02:29:12;;;;;;;;;;;;;;;6.59;100.00;101671.63;5080213;28;19923;-79
2023/01/30 02:31:47;;;;;;;;;;;;;;;6.59;100.00;101668.16;5091811;28;20101;-79
2023/01/30 02:34:15;;;;;;;;;;;;;;;6.60;100.00;101681.13;5082581;28;20112;-79
2023/01/30 02:36:59;;;;;;;;;;;;;;;6.61;100.00;101676.81;5095823;28;20121;-79
2023/01/30 02:39:37;;;;;;;;;;;;;;;6.63;100.00;101678.50;5092651;28;19920;-79
2023/01/30 02:42:03;;;;;;;;;;;;;;;6.63;100.00;101681.09;5087997;28;20194;-79
2023/01/30 02:44:46;;;;;;;;;;;;;;;6.64;100.00;101675.03;5081832;28;20219;-79
2023/01/30 02:47:15;;;;;;;;;;;;;;;6.66;100.00;101688.88;5096281;28;19908;-79
2023/01/30 02:49:50;;;;;;;;;;;;;;;6.67;100.00;101674.13;5097766;28;19956;-79
2023/01/30 02:52:16;;;;;;;;;;;;;;;6.70;100.00;101666.28;5099646;28;19951;-79
2023/01/30 02:54:41;;;;;;;;;;;;;;;6.70;100.00;101666.28;5097512;28;19924;-79
2023/01/30 02:57:23;;;;;;;;;;;;;;;6.72;100.00;101664.53;5096894;28;19924;-79
2023/01/30 02:59:54;;;;;;;;;;;;;;;6.72;100.00;101659.31;5099101;28;20185;-79
2023/01/30 03:02:22;;;;;;;;;;;;;;;6.74;100.00;101660.16;5082970;28;20184;-79
2023/01/30 03:05:03;;;;;;;;;;;;;;;6.75;100.00;101669.72;5075635;28;19920;-79
2023/01/30 03:07:55;;;;;;;;;;;;;;;6.76;100.00;101668.81;5093676;28;20077;-79
2023/01/30 03:10:20;;;;;;;;;;;;;;;6.77;100.00;101661.84;5044158;28;19940;-80
2023/01/30 03:12:55;;;;;;;;;;;;;;;6.78;100.00;101666.19;5090622;28;19943;-80
2023/01/30 03:15:24;;;;;;;;;;;;;;;6.78;100.00;101661.00;5078762;28;19995;-80
2023/01/30 03:17:50;;;;;;;;;;;;;;;6.78;100.00;101664.44;5074418;28;19919;-80
2023/01/30 03:20:17;;;;;;;;;;;;;;;6.81;100.00;101666.16;5080875;28;19956;-80
2023/01/30 03:22:42;;;;;;;;;;;;;;;6.80;100.00;101677.44;5096456;28;19923;-80
2023/01/30 03:25:10;;;;;;;;;;;;;;;6.81;100.00;101660.97;5080824;28;19925;-80
2023/01/30 03:27:36;;;;;;;;;;;;;;;6.82;100.00;101675.69;5078636;28;19916;-80
2023/01/30 03:30:01;;;;;;;;;;;;;;;6.82;100.00;101663.56;5077258;28;19947;-80
2023/01/30 03:32:27;;;;;;;;;;;;;;;6.84;100.00;101653.09;5082432;28;20247;-80
2023/01/30 03:34:52;;;;;;;;;;;;;;;6.84;100.00;101658.31;5084514;28;19977;-80
2023/01/30 03:37:17;;;;;;;;;;;;;;;6.84;100.00;101643.56;5081857;28;19916;-80
2023/01/30 03:39:43;;;;;;;;;;;;;;;6.85;100.00;101636.59;5088729;28;19920;-80
2023/01/30 03:42:08;;;;;;;;;;;;;;;6.87;100.00;101666.94;5082541;28;19924;-80
2023/01/30 03:44:33;;;;;;;;;;;;;;;6.87;100.00;101661.72;5076758;28;20150;-80
2023/01/30 03:46:58;;;;;;;;;;;;;;;6.88;100.00;101658.25;5081264;28;20187;-80
2023/01/30 03:49:24;;;;;;;;;;;;;;;6.89;100.00;101659.13;5078246;28;20132;-80
2023/01/30 03:51:49;;;;;;;;;;;;;;;6.89;100.00;101661.72;5084953;28;19925;-80
2023/01/30 03:54:14;;;;;;;;;;;;;;;6.88;100.00;101660.88;5085358;28;19970;-80
2023/01/30 03:56:39;;;;;;;;;;;;;;;6.88;100.00;101658.25;5066346;28;19920;-78
2023/01/30 03:59:05;;;;;;;;;;;;;;;6.88;100.00;101650.44;5077988;28;20112;-78
2023/01/30 04:01:30;;;;;;;;;;;;;;;6.89;100.00;101665.22;5077126;28;20208;-78
2023/01/30 04:03:55;;;;;;;;;;;;;;;6.89;100.00;101646.97;5084344;28;20112;-78
2023/01/30 04:06:20;;;;;;;;;;;;;;;6.88;100.00;101655.66;5085870;28;19975;-78
2023/01/30 04:08:46;;;;;;;;;;;;;;;6.89;100.00;101641.78;5077242;28;19924;-78
2023/01/30 04:11:11;;;;;;;;;;;;;;;6.90;100.00;101645.22;5087968;28;19924;-78
2023/01/30 04:13:36;;;;;;;;;;;;;;;6.89;100.00;101643.50;5095950;28;20178;-78
2023/01/30 04:16:13;;;;;;;;;;;;;;;6.89;100.00;101652.19;5078667;28;20113;-78
2023/01/30 04:18:38;;;;;;;;;;;;;;;6.89;100.00;101656.50;5072142;28;19955;-78
2023/01/30 04:21:04;;;;;;;;;;;;;;;6.88;100.00;101658.25;5076784;28;19923;-78
2023/01/30 04:23:29;;;;;;;;;;;;;;;6.89;100.00;101651.31;5075690;28;19916;-77
2023/01/30 04:25:54;;;;;;;;;;;;;;;6.88;100.00;101663.47;5084091;28;19916;-78
2023/01/30 04:28:19;;;;;;;;;;;;;;;6.88;100.00;101678.25;5097068;28;19923;-78
2023/01/30 04:30:45;;;;;;;;;;;;;;;6.87;100.00;101668.69;5087641;28;19920;-78
2023/01/30 04:33:10;;;;;;;;;;;;;;;6.85;100.00;101658.28;5097447;28;19954;-78
2023/01/30 04:35:35;;;;;;;;;;;;;;;6.83;99.36;101680.88;5086493;28;19958;-78
2023/01/30 04:38:00;;;;;;;;;;;;;;;6.83;97.83;101677.44;5097635;28;19924;-77
2023/01/30 04:40:26;;;;;;;;;;;;;;;6.81;97.82;101660.97;5086510;28;19995;-78
2023/01/30 04:42:51;;;;;;;;;;;;;;;6.80;96.99;101693.94;5097016;28;20013;-78
2023/01/30 04:45:16;;;;;;;;;;;;;;;6.79;95.16;101678.34;5077196;28;19924;-77
2023/01/30 04:47:42;;;;;;;;;;;;;;;6.80;94.07;101695.69;5095032;28;19962;-77
2023/01/30 04:50:07;;;;;;;;;;;;;;;6.82;93.29;101700.00;5096190;28;20214;-77
2023/01/30 04:52:33;;;;;;;;;;;;;;;6.84;92.71;101681.72;5080447;28;19925;-78
2023/01/30 04:54:58;;;;;;;;;;;;;;;6.87;91.92;101697.34;5076959;28;19982;-78
2023/01/30 04:57:23;;;;;;;;;;;;;;;6.88;92.66;101697.31;5090975;28;20104;-78
2023/01/30 04:59:48;;;;;;;;;;;;;;;6.89;93.83;101719.00;5090899;28;19916;-78
2023/01/30 05:02:14;;;;;;;;;;;;;;;6.89;93.71;101705.97;5089532;28;19982;-78
2023/01/30 05:04:39;;;;;;;;;;;;;;;6.90;94.04;101700.75;5071058;28;20339;-78
2023/01/30 05:07:04;;;;;;;;;;;;;;;6.89;93.94;101700.78;5076549;28;19928;-78
2023/01/30 05:09:29;;;;;;;;;;;;;;;6.90;94.38;101702.50;5092690;28;19920;-78
2023/01/30 05:11:55;;;;;;;;;;;;;;;6.88;93.99;101702.53;5085208;28;19947;-78
2023/01/30 05:14:20;;;;;;;;;;;;;;;6.88;94.44;101706.88;5096566;28;19920;-78
2023/01/30 05:16:45;;;;;;;;;;;;;;;6.84;93.53;101719.06;5083232;28;19985;-78
2023/01/30 05:19:11;;;;;;;;;;;;;;;6.83;93.68;101703.47;5097136;28;19913;-78
2023/01/30 05:21:36;;;;;;;;;;;;;;;6.81;94.16;101706.06;5081625;28;19926;-78
2023/01/30 05:24:02;;;;;;;;;;;;;;;6.79;93.17;101697.44;5096990;28;20138;-78
2023/01/30 05:26:27;;;;;;;;;;;;;;;6.77;92.77;101698.31;5082848;28;19928;-78
2023/01/30 05:28:53;;;;;;;;;;;;;;;6.75;93.04;101695.75;5100901;28;20005;-78
2023/01/30 05:31:18;;;;;;;;;;;;;;;6.73;93.07;101705.28;5097600;28;19912;-78
2023/01/30 05:33:45;;;;;;;;;;;;;;;6.71;92.52;101694.03;5080308;28;19935;-78
2023/01/30 05:36:13;;;;;;;;;;;;;;;6.69;93.06;101691.47;5096993;28;20030;-78
2023/01/30 05:38:38;;;;;;;;;;;;;;;6.66;92.89;101695.84;5080811;28;19912;-78
2023/01/30 05:41:05;;;;;;;;;;;;;;;6.65;93.03;101699.31;5095203;28;19924;-78
2023/01/30 05:43:31;;;;;;;;;;;;;;;6.61;93.70;101713.25;5082185;28;19920;-78
2023/01/30 05:45:57;;;;;;;;;;;;;;;6.59;93.38;101730.63;5093807;28;20215;-78
2023/01/30 05:48:23;;;;;;;;;;;;;;;6.57;94.04;101715.03;5084040;28;19983;-78
2023/01/30 05:50:51;;;;;;;;;;;;;;;6.56;94.48;101718.47;5091754;28;19951;-78
2023/01/30 05:53:17;;;;;;;;;;;;;;;6.53;94.73;101723.72;5085247;28;19928;-78
2023/01/30 05:55:43;;;;;;;;;;;;;;;6.52;94.99;101722.84;5090205;28;19981;-78
2023/01/30 05:58:08;;;;;;;;;;;;;;;6.48;94.46;101726.38;5087874;28;19919;-78
2023/01/30 06:00:34;;;;;;;;;;;;;;;6.48;94.42;101733.31;5088075;28;20235;-78
2023/01/30 06:02:59;;;;;;;;;;;;;;;6.48;95.04;101715.09;5090067;28;19984;-78
2023/01/30 06:05:24;;;;;;;;;;;;;;;6.45;94.63;101728.13;5086355;28;19917;-78
2023/01/30 06:07:49;;;;;;;;;;;;;;;6.41;93.25;101713.44;5094000;28;19924;-78
2023/01/30 06:10:15;;;;;;;;;;;;;;;6.41;94.24;101713.44;5079464;28;20352;-78
2023/01/30 06:12:40;;;;;;;;;;;;;;;6.37;93.02;101710.00;5081084;28;20235;-78
2023/01/30 06:15:06;;;;;;;;;;;;;;;6.34;92.18;101715.22;5079980;28;20298;-78
2023/01/30 06:17:31;;;;;;;;;;;;;;;6.29;90.57;101730.91;5083103;28;19926;-78
2023/01/30 06:19:57;;;;;;;;;;;;;;;6.27;91.03;101740.41;5100119;28;19920;-78
2023/01/30 06:22:22;;;;;;;;;;;;;;;6.24;89.77;101714.47;5080102;28;19924;-78
2023/01/30 06:24:47;;;;;;;;;;;;;;;6.22;88.81;101699.72;5078823;28;20197;-78
2023/01/30 06:27:13;;;;;;;;;;;;;;;6.19;89.22;101705.81;5081052;28;20132;-78
2023/01/30 06:29:38;;;;;;;;;;;;;;;6.17;88.56;101709.28;5083327;28;20165;-78
2023/01/30 06:32:04;;;;;;;;;;;;;;;6.16;89.12;101721.44;5078444;28;19913;-78
2023/01/30 06:34:29;;;;;;;;;;;;;;;6.14;88.33;101734.47;5080523;28;20004;-78
2023/01/30 06:36:54;;;;;;;;;;;;;;;6.11;86.71;101734.50;5082279;28;19916;-78
2023/01/30 06:39:20;;;;;;;;;;;;;;;6.10;87.91;101732.75;5091194;28;19928;-78
2023/01/30 06:41:45;;;;;;;;;;;;;;;6.10;87.95;101721.50;5076701;28;20116;-78
2023/01/30 06:44:10;;;;;;;;;;;;;;;6.08;87.60;101725.88;5085612;28;19935;-78
2023/01/30 06:46:36;;;;;;;;;;;;;;;6.04;85.19;101721.53;5083608;28;20138;-78
2023/01/30 06:49:01;;;;;;;;;;;;;;;6.03;84.45;101717.22;5083238;28;19931;-78
2023/01/30 06:51:26;;;;;;;;;;;;;;;6.01;84.93;101726.78;5077396;28;19920;-78
2023/01/30 06:53:52;;;;;;;;;;;;;;;5.99;85.08;101724.19;5089575;28;19928;-78
2023/01/30 06:56:17;;;;;;;;;;;;;;;5.96;82.62;101727.66;5087162;28;19916;-78
2023/01/30 06:58:42;;;;;;;;;;;;;;;5.94;83.69;101720.72;5078988;28;19929;-78
2023/01/30 07:01:08;;;;;;;;;;;;;;;5.92;82.17;101748.47;5079267;28;19925;-78
2023/01/30 07:03:33;;;;;;;;;;;;;;;5.90;82.02;101756.28;5076346;28;20279;-77
2023/01/30 07:05:58;;;;;;;;;;;;;;;5.90;83.15;101750.22;5068907;28;19917;-78
2023/01/30 07:08:23;;;;;;;;;;;;;;;5.89;84.04;101764.09;5076636;28;19955;-78
2023/01/30 07:10:49;;;;;;;;;;;;;;;5.87;81.81;101758.88;5074082;28;20220;-77
2023/01/30 07:13:14;;;;;;;;;;;;;;;5.88;83.02;101783.19;5077642;28;19931;-78
2023/01/30 07:15:39;;;;;;;;;;;;;;;5.88;85.20;101763.22;5085387;28;19928;-78
2023/01/30 07:18:05;;;;;;;;;;;;;;;5.85;83.51;101763.25;5080891;28;19963;-78
2023/01/30 07:20:30;;;;;;;;;;;;;;;5.84;83.46;101771.03;5092557;28;19924;-78
2023/01/30 07:22:55;;;;;;;;;;;;;;;5.81;83.01;101782.34;5077501;28;20007;-77
2023/01/30 07:25:22;;;;;;;;;;;;;;;5.82;82.54;101768.47;5079775;28;19927;-78
2023/01/30 07:27:57;;;;;;;;;;;;;;;5.84;82.14;101778.84;5078248;28;19908;-78
2023/01/30 07:30:23;;;;;;;;;;;;;;;5.83;83.74;101772.78;5086881;28;19954;-78
2023/01/30 07:32:53;;;;;;;;;;;;;;;5.84;83.27;101778.84;5073500;28;20200;-77
2023/01/30 07:35:19;;;;;;;;;;;;;;;5.82;83.34;101776.28;5077916;28;19924;-78
2023/01/30 07:37:46;;;;;;;;;;;;;;;5.83;85.75;101787.53;5076439;28;19917;-78
2023/01/30 07:40:11;;;;;;;;;;;;;;;5.81;84.83;101774.53;5077147;28;19920;-77
2023/01/30 07:42:36;;;;;;;;;;;;;;;5.81;86.16;101778.88;5077306;28;19916;-78
2023/01/30 07:45:02;;;;;;;;;;;;;;;5.79;83.79;101765.88;5078544;28;20101;-78
2023/01/30 07:47:27;;;;;;;;;;;;;;;5.79;85.08;101762.44;5075573;28;20123;-77
2023/01/30 07:49:52;;;;;;;;;;;;;;;5.80;85.34;101769.34;5076609;28;19932;-78
2023/01/30 07:52:18;;;;;;;;;;;;;;;5.79;85.96;101776.28;5071482;28;20011;-78
2023/01/30 07:54:43;;;;;;;;;;;;;;;5.78;84.93;101766.75;5074188;28;19924;-78
2023/01/30 07:57:08;;;;;;;;;;;;;;;5.79;84.46;101785.84;5073580;28;19935;-78
2023/01/30 07:59:33;;;;;;;;;;;;;;;5.78;84.27;101792.75;5057063;28;20199;-77
2023/01/30 08:01:58;;;;;;;;;;;;;;;5.76;83.92;101805.75;5070051;28;19924;-78
2023/01/30 08:04:24;;;;;;;;;;;;;;;5.77;84.07;101811.81;5072182;28;20149;-77
2023/01/30 08:06:49;;;;;;;;;;;;;;;5.79;84.76;101806.63;5073083;28;20126;-77
2023/01/30 08:09:14;;;;;;;;;;;;;;;5.78;85.47;101818.75;5075126;28;19928;-77
2023/01/30 08:11:39;;;;;;;;;;;;;;;5.79;85.46;101817.03;5072982;28;19931;-77
2023/01/30 08:14:05;;;;;;;;;;;;;;;5.79;85.08;101822.22;5074533;28;19912;-78
2023/01/30 08:16:31;;;;;;;;;;;;;;;5.79;84.65;101809.22;5075739;28;19979;-78
2023/01/30 08:18:56;;;;;;;;;;;;;;;5.79;85.08;101810.09;5074146;28;20178;-77
2023/01/30 08:21:21;;;;;;;;;;;;;;;5.80;85.91;101818.72;5073661;28;19917;-78
2023/01/30 08:23:47;;;;;;;;;;;;;;;5.81;84.99;101799.69;5076125;28;19920;-78
2023/01/30 08:26:13;;;;;;;;;;;;;;;5.82;85.08;101815.28;5076327;28;19932;-78
2023/01/30 08:28:39;;;;;;;;;;;;;;;5.81;85.21;101818.72;5077194;28;19926;-78
2023/01/30 08:31:08;;;;;;;;;;;;;;;5.83;85.52;101821.31;5077792;28;20219;-78
2023/01/30 08:33:33;;;;;;;;;;;;;;;5.81;84.12;101829.13;5075473;28;19927;-78
2023/01/30 08:35:59;;;;;;;;;;;;;;;5.83;85.17;101821.31;5075566;28;19920;-78
2023/01/30 08:38:24;;;;;;;;;;;;;;;5.84;83.93;101821.31;5077278;28;20133;-78
2023/01/30 08:40:50;;;;;;;;;;;;;;;5.85;83.65;101825.63;5055847;28;19924;-78
2023/01/30 08:43:15;;;;;;;;;;;;;;;5.87;84.58;101844.69;5076000;28;19931;-78
2023/01/30 08:45:40;;;;;;;;;;;;;;;5.89;84.05;101844.69;5075434;28;19970;-78
2023/01/30 08:48:06;;;;;;;;;;;;;;;5.89;84.19;101868.09;5077114;28;19924;-78
2023/01/30 08:50:32;;;;;;;;;;;;;;;5.90;85.60;101880.22;5071040;28;19924;-78
2023/01/30 08:53:02;;;;;;;;;;;;;;;5.90;84.92;101855.06;5057555;28;20310;-78
2023/01/30 08:55:27;;;;;;;;;;;;;;;5.92;83.46;101887.13;5071189;28;19919;-78
2023/01/30 08:57:55;;;;;;;;;;;;;;;5.95;84.65;101875.88;5053227;28;19956;-78
2023/01/30 09:00:20;;;;;;;;;;;;;;;5.96;84.00;101856.81;5075284;28;20219;-78
2023/01/30 09:02:45;;;;;;;;;;;;;;;5.98;82.87;101873.25;5079584;28;19925;-78
2023/01/30 09:05:11;;;;;;;;;;;;;;;5.99;82.80;101877.59;5067165;28;19921;-77
2023/01/30 09:07:36;;;;;;;;;;;;;;;6.01;82.92;101886.25;5082691;28;20136;-77
2023/01/30 09:10:01;;;;;;;;;;;;;;;6.02;83.37;101877.59;5094479;28;19994;-77
2023/01/30 09:12:27;;;;;;;;;;;;;;;6.02;82.95;101882.81;5081890;28;19924;-77
2023/01/30 09:14:54;;;;;;;;;;;;;;;6.04;82.72;101882.78;5080276;28;19927;-77
2023/01/30 09:17:19;;;;;;;;;;;;;;;6.05;82.77;101900.97;5085272;28;20273;-78
2023/01/30 09:19:44;;;;;;;;;;;;;;;6.06;82.87;101892.31;5086108;28;19924;-77
2023/01/30 09:22:10;;;;;;;;;;;;;;;6.06;83.04;101891.47;5077781;28;19932;-77
2023/01/30 09:24:35;;;;;;;;;;;;;;;6.07;83.22;101885.38;5079578;28;19917;-77
2023/01/30 09:27:01;;;;;;;;;;;;;;;6.06;83.73;101897.50;5075997;28;20243;-77
2023/01/30 09:29:26;;;;;;;;;;;;;;;6.07;84.52;101894.03;5077848;28;20115;-77
2023/01/30 09:31:51;;;;;;;;;;;;;;;6.07;85.25;101908.78;5080360;28;19931;-77
2023/01/30 09:34:17;;;;;;;;;;;;;;;6.07;83.86;101899.22;5081262;28;19924;-77
2023/01/30 09:39:31;;;;;;;15.13;2.10;;;;;;;7.02;77.87;101896.84;5017112;27;1923655;-71
2023/01/30 09:42:15;;;;;;;14.68;2.50;;;;;;;6.66;79.85;101917.09;5088169;28;20262;-71
2023/01/30 09:44:49;;;;;;;21.73;2.72;;;;;;;6.47;80.39;101937.16;5081791;28;20390;-71
2023/01/30 09:47:29;;;;;;;17.52;2.83;;;;;;;6.37;81.17;101941.56;5072161;28;20086;-71
2023/01/30 09:50:05;;;;;;;17.25;2.15;;;;;;;6.34;80.85;101936.38;5087201;28;20043;-71
2023/01/30 09:52:55;;;;;;;11.75;2.30;;;;;;;6.31;81.42;101925.97;5080965;28;20020;-71
2023/01/30 09:55:28;;;;;;;15.98;3.20;;;;;;;6.28;81.77;101939.03;5066005;28;20028;-71
2023/01/30 09:57:55;;;;;;;21.45;3.28;;;;;;;6.26;81.19;101927.78;5084533;28;20039;-71
2023/01/30 10:00:32;;;;;;;20.70;2.67;;;;;;;6.25;81.11;101931.22;5072410;28;20320;-71
2023/01/30 10:03:17;;;;;;;19.45;3.42;;;;;;;6.26;81.48;101958.97;5082880;28;20036;-71
2023/01/30 10:05:48;;;;;;;17.17;1.95;;;;;;;6.25;81.40;101962.44;5052830;28;20104;-71
2023/01/30 10:08:31;;;;;;;20.80;2.20;;;;;;;6.25;81.67;101949.44;5054257;28;20036;-71
2023/01/30 10:11:13;;;;;;;13.13;2.15;;;;;;;6.25;81.72;101972.84;5062754;28;20275;-71
2023/01/30 10:13:58;;;;;;;18.33;3.13;;;;;;;6.25;81.90;101978.91;5058838;28;20047;-71
2023/01/30 10:16:46;;;;;;;23.48;3.45;;;;;;;6.26;80.69;101978.06;5052498;28;20344;-71
2023/01/30 10:19:23;;;;;;;18.50;3.65;;;;;;;6.29;81.48;101971.97;5062573;28;20033;-71
2023/01/30 10:22:20;;;;;;;20.55;2.72;;;;;;;6.30;81.47;101987.56;5052030;28;20063;-71
2023/01/30 10:25:10;;;;;;;15.02;2.75;;;;;;;6.32;81.18;102000.56;4999152;28;20379;-71
2023/01/30 10:27:45;;;;;;;17.67;2.47;;;;;;;6.33;80.88;101964.16;5051668;28;20082;-71
2023/01/30 10:30:15;;;;;;;26.48;3.70;;;;;;;6.34;81.60;102001.44;5056131;28;20025;-71
2023/01/30 10:32:55;;;;;;;27.20;3.15;;;;;;;6.34;81.61;101997.06;5051414;28;20091;-71
2023/01/30 10:35:24;;;;;;;29.98;2.72;;;;;;;6.37;82.31;101984.91;5051635;28;20048;-71
2023/01/30 10:37:56;;;;;;;14.73;3.33;;;;;;;6.40;81.13;101992.72;5051580;28;20095;-71
2023/01/30 10:40:32;;;;;;;28.50;3.17;;;;;;;6.41;81.29;101995.31;5059392;28;20138;-71
2023/01/30 10:43:08;;;;;;;13.00;2.10;;;;;;;6.42;81.14;101989.25;5058431;28;20314;-71
2023/01/30 10:46:07;;;;;;;17.38;2.08;;;;;;;6.43;81.19;101979.72;5058196;28;20032;-71
2023/01/30 10:48:55;;;;;;;14.07;2.42;;;;;;;6.43;81.22;101979.72;5048857;28;20052;-71
2023/01/30 10:51:28;;;;;;;33.30;2.90;;;;;;;6.44;81.53;101991.81;5038130;28;20309;-71
2023/01/30 10:54:16;;;;;;;14.80;2.53;;;;;;;6.46;81.11;101982.31;5038856;28;20036;-71
2023/01/30 10:57:06;;;;;;;19.58;2.72;;;;;;;6.49;81.19;102000.47;5036610;28;20083;-71
2023/01/30 11:00:04;;;;;;;19.48;3.35;;;;;;;6.50;81.58;102012.63;5038005;28;20045;-71
2023/01/30 11:02:48;;;;;;;22.90;2.90;;;;;;;6.47;81.32;102003.09;5022512;28;20042;-71
2023/01/30 11:05:17;;;;;;;23.98;3.25;;;;;;;6.48;81.20;102007.44;5039938;28;20040;-71
2023/01/30 11:07:44;;;;;;;22.40;3.13;;;;;;;6.48;81.86;102003.97;5040466;28;20372;-71
2023/01/30 11:10:23;;;;;;;22.50;2.80;;;;;;;6.47;81.84;102016.09;5040526;28;20033;-71
2023/01/30 11:12:59;;;;;;;17.90;2.63;;;;;;;6.47;82.05;102010.03;5046908;28;20297;-71
2023/01/30 11:15:38;;;;;;;30.08;5.03;;;;;;;6.46;82.22;102008.31;5041258;28;20041;-71
2023/01/30 11:18:06;;;;;;;28.58;4.05;;;;;;;6.45;82.90;101998.78;5042721;28;20025;-71
2023/01/30 11:20:38;;;;;;;23.73;2.75;;;;;;;6.45;82.60;102006.59;5044033;28;20144;-71
2023/01/30 11:23:22;;;;;;;19.65;4.25;;;;;;;6.45;81.69;102017.84;5038159;28;20037;-71
2023/01/30 11:25:53;;;;;;;23.92;3.63;;;;;;;6.47;81.42;101997.03;5037475;28;20037;-71
2023/01/30 11:28:18;;;;;;;19.52;2.90;;;;;;;6.47;81.83;101994.44;5037501;28;20022;-71
2023/01/30 11:30:53;;;;;;;26.10;2.85;;;;;;;6.49;82.24;101990.97;5041942;28;20048;-72
2023/01/30 11:33:21;;;;;;;15.63;2.88;;;;;;;6.50;82.32;102023.91;5037174;28;20238;-71
2023/01/30 11:36:22;;;;;;;25.02;3.55;;;;;;;6.52;82.79;101995.28;5037999;28;20025;-71
2023/01/30 11:39:11;;;;;;;27.45;3.95;;;;;;;6.51;82.95;102007.44;5041020;28;20041;-71
2023/01/30 11:41:41;;;;;;;13.85;3.15;;;;;;;6.52;82.05;102014.34;5024974;28;20053;-71
2023/01/30 11:44:09;;;;;;;27.20;3.55;;;;;;;6.52;82.69;102005.69;5038638;28;20063;-71
2023/01/30 11:46:37;;;;;;;24.37;4.20;;;;;;;6.52;82.21;102006.53;5033602;28;20232;-71
2023/01/30 11:49:13;;;;;;;17.30;3.17;;;;;;;6.51;82.50;102003.94;5037182;28;20036;-71
2023/01/30 11:51:42;;;;;;;24.00;3.28;;;;;;;6.49;82.89;101993.56;5035783;28;20048;-71
2023/01/30 11:54:14;;;;;;;22.05;3.65;;;;;;;6.47;82.32;102016.09;5037841;28;20060;-71
2023/01/30 11:56:53;;;;;;;16.42;3.60;;;;;;;6.49;82.28;102023.91;5037766;28;20333;-71
2023/01/30 11:59:30;;;;;;;;;;;;;;;6.51;81.60;101994.41;5036607;28;20040;-71
2023/01/30 12:02:31;;;;;;;18.80;2.85;;;;;;;6.54;81.20;101993.53;5033641;28;19928;-71
2023/01/30 12:05:02;;;;;;;17.60;3.58;;;;;;;6.58;82.40;102018.66;5035465;28;20044;-71
2023/01/30 12:07:29;;;;;;;17.40;3.05;;;;;;;6.61;82.63;102005.63;5033765;28;20033;-71
2023/01/30 12:09:56;;;;;;;24.45;3.45;;;;;;;6.63;82.41;102014.28;5037376;28;20236;-71
2023/01/30 12:12:48;;;;;;;27.90;3.42;;;;;;;6.64;82.16;102010.81;5036550;28;20378;-71
2023/01/30 12:15:25;;;;;;;31.63;3.65;;;;;;;6.65;83.12;102009.06;5036407;28;20091;-71
2023/01/30 12:18:02;;;;;;;25.55;3.65;;;;;;;6.67;82.42;102005.59;5035474;28;20065;-71
2023/01/30 12:20:55;;;;;;;17.48;2.75;;;;;;;6.69;82.05;102010.78;5034985;28;20116;-71
2023/01/30 12:23:35;;;;;;;23.25;3.05;;;;;;;6.73;82.02;102020.31;5033830;28;20033;-71
2023/01/30 12:26:12;;;;;;;25.33;3.17;;;;;;;6.76;81.65;102041.13;5034989;28;20064;-71
2023/01/30 12:28:43;;;;;;;24.02;3.65;;;;;;;6.78;82.40;102030.69;5042051;28;20020;-71
2023/01/30 12:31:16;;;;;;;29.83;4.00;;;;;;;6.79;82.28;102002.06;5029157;28;20037;-72
2023/01/30 12:33:42;;;;;;;22.17;3.05;;;;;;;6.79;81.16;102009.00;5037706;28;20033;-71
2023/01/30 12:36:38;;;;;;;18.73;2.67;;;;;;;6.78;81.11;102010.72;5036115;28;20080;-71
2023/01/30 12:39:18;;;;;;;24.92;3.65;;;;;;;6.80;81.29;102018.53;5040180;28;20111;-71
2023/01/30 12:42:11;;;;;;;24.55;3.13;;;;;;;6.80;81.12;102008.97;5036017;28;20320;-71